Time;durP1;ratioP1;P1;durP2;ratioP2;P2;SDS_P1;SDS_P2;PMS_P1;PMS_P2;Temp;Humidity;BMP_temperature;BMP_pressure;BME280_temperature;BME280_humidity;BME280_pressure;Samples;Min_cycle;Max_cycle;Signal;HPM_P1;HPM_P2
2022/02/27 00:01:38;;;;;;;8.67;3.60;;;;;;;1.07;100.00;102940.34;7390453;19;20413;-47
2022/02/27 00:04:12;;;;;;;6.97;3.63;;;;;;;1.10;100.00;102939.78;7395274;19;20431;-50
2022/02/27 00:06:42;;;;;;;8.00;3.70;;;;;;;1.15;100.00;102941.22;7394473;19;20414;-47
2022/02/27 00:09:12;;;;;;;8.13;3.50;;;;;;;1.16;100.00;102948.13;7396646;19;20411;-50
2022/02/27 00:11:41;;;;;;;17.00;7.80;;;;;;;1.24;100.00;102930.28;7393936;19;20417;-48
2022/02/27 00:14:13;;;;;;;13.97;7.17;;;;;;;1.26;100.00;102928.81;7396712;19;20453;-47
2022/02/27 00:16:42;;;;;;;18.33;7.00;;;;;;;1.39;100.00;102916.75;7393969;19;20411;-48
2022/02/27 00:19:17;;;;;;;13.60;6.67;;;;;;;1.37;100.00;102919.88;7396663;19;20407;-47
2022/02/27 00:21:47;;;;;;;14.93;6.67;;;;;;;1.45;100.00;102925.09;7393085;19;20562;-47
2022/02/27 00:24:17;;;;;;;12.83;5.30;;;;;;;1.44;100.00;102914.75;7396721;19;20422;-47
2022/02/27 00:26:47;;;;;;;16.30;7.03;;;;;;;1.22;100.00;102927.56;7393709;19;20533;-47
2022/02/27 00:29:17;;;;;;;17.52;9.05;;;;;;;1.24;100.00;102922.66;7397113;19;20937;-47
2022/02/27 00:31:46;;;;;;;18.73;7.57;;;;;;;1.31;100.00;102918.44;7393310;19;20194;-47
2022/02/27 00:34:21;;;;;;;11.57;5.30;;;;;;;1.33;100.00;102921.19;7396375;19;20959;-48
2022/02/27 00:36:52;;;;;;;15.57;7.47;;;;;;;1.43;100.00;102913.84;7393260;19;20437;-47
2022/02/27 00:39:21;;;;;;;12.53;5.60;;;;;;;1.48;100.00;102902.53;7395599;19;20497;-46
2022/02/27 00:41:51;;;;;;;9.00;4.53;;;;;;;1.31;100.00;102907.34;7391983;19;20795;-50
2022/02/27 00:44:22;;;;;;;10.40;5.22;;;;;;;1.22;100.00;102909.75;7396038;19;20427;-45
2022/02/27 00:46:51;;;;;;;12.17;5.63;;;;;;;1.04;100.00;102919.63;7392826;19;20187;-50
2022/02/27 00:49:26;;;;;;;14.00;6.13;;;;;;;1.28;100.00;102909.56;7396707;19;20394;-48
2022/02/27 00:51:55;;;;;;;9.93;4.07;;;;;;;1.23;100.00;102915.75;7391226;19;20187;-47
2022/02/27 00:54:25;;;;;;;13.10;4.68;;;;;;;1.23;100.00;102915.75;7394934;19;20431;-47
2022/02/27 00:56:54;;;;;;;10.10;5.03;;;;;;;1.31;100.00;102912.44;7392376;19;20193;-47
2022/02/27 00:59:26;;;;;;;7.13;4.03;;;;;;;1.24;100.00;102921.03;7395516;19;20601;-47
2022/02/27 01:01:55;;;;;;;9.50;4.77;;;;;;;1.18;100.00;102920.31;7391483;19;20438;-47
2022/02/27 01:04:30;;;;;;;10.15;4.75;;;;;;;1.10;100.00;102919.44;7394963;19;20435;-50
2022/02/27 01:07:00;;;;;;;11.40;4.22;;;;;;;1.14;100.00;102913.97;7393156;19;20193;-47
2022/02/27 01:09:29;;;;;;;8.98;4.55;;;;;;;1.12;100.00;102923.06;7394757;19;20174;-48
2022/02/27 01:11:59;;;;;;;9.43;4.50;;;;;;;0.95;100.00;102936.38;7398413;19;20199;-47
2022/02/27 01:14:31;;;;;;;8.70;4.40;;;;;;;1.10;100.00;102927.06;7401913;19;21610;-47
2022/02/27 01:17:05;;;;;;;7.70;4.20;;;;;;;0.94;100.00;102929.47;7399565;19;20196;-50
2022/02/27 01:19:37;;;;;;;7.93;3.73;;;;;;;0.90;100.00;102933.31;7403144;19;20604;-45
2022/02/27 01:22:07;;;;;;;7.13;3.17;;;;;;;0.86;100.00;102933.66;7399823;19;20439;-49
2022/02/27 01:24:37;;;;;;;9.40;4.23;;;;;;;0.84;100.00;102932.59;7401877;19;20434;-50
2022/02/27 01:27:07;;;;;;;8.50;4.00;;;;;;;0.95;100.00;102936.38;7400354;19;20969;-47
2022/02/27 01:29:36;;;;;;;10.37;4.87;;;;;;;0.96;100.00;102932.22;7403272;19;20714;-47
2022/02/27 01:32:07;;;;;;;10.23;4.30;;;;;;;0.78;100.00;102936.97;7397922;19;20435;-50
2022/02/27 01:34:39;;;;;;;8.15;4.35;;;;;;;0.95;100.00;102928.75;7401098;19;20437;-46
2022/02/27 01:37:09;;;;;;;8.20;4.22;;;;;;;0.83;100.00;102930.78;7399906;19;20186;-45
2022/02/27 01:39:38;;;;;;;9.25;4.13;;;;;;;0.87;100.00;102927.84;7402724;19;20849;-48
2022/02/27 01:42:08;;;;;;;15.27;4.63;;;;;;;0.86;100.00;102927.69;7398519;19;20192;-48
2022/02/27 01:44:40;;;;;;;8.50;4.30;;;;;;;0.98;100.00;102929.13;7401217;19;20429;-46
2022/02/27 01:47:12;;;;;;;8.25;4.32;;;;;;;0.89;100.00;102936.59;7397003;19;20429;-45
2022/02/27 01:49:47;;;;;;;20.83;5.70;;;;;;;0.88;100.00;102929.66;7401688;19;20131;-47
2022/02/27 01:52:18;;;;;;;7.50;3.65;;;;;;;1.00;100.00;102930.19;7399097;19;20457;-46
2022/02/27 01:54:47;;;;;;;16.37;4.20;;;;;;;0.67;100.00;102939.16;7400778;19;20159;-47
2022/02/27 01:57:17;;;;;;;8.20;4.45;;;;;;;0.78;100.00;102934.41;7397542;19;20445;-46
2022/02/27 01:59:47;;;;;;;9.00;3.85;;;;;;;0.43;100.00;102938.81;7400917;19;20131;-48
2022/02/27 02:02:17;;;;;;;7.90;3.80;;;;;;;0.37;100.00;102936.47;7396447;19;20645;-49
2022/02/27 02:04:49;;;;;;;12.07;3.90;;;;;;;0.57;100.00;102921.03;7386574;19;20193;-46
2022/02/27 02:07:19;;;;;;;14.43;4.47;;;;;;;0.67;100.00;102920.47;7398280;19;20204;-51
2022/02/27 02:09:49;;;;;;;7.32;3.65;;;;;;;0.47;100.00;102928.28;7401694;19;20137;-46
2022/02/27 02:12:19;;;;;;;11.32;4.00;;;;;;;0.59;100.00;102924.66;7395917;19;20592;-47
2022/02/27 02:14:49;;;;;;;13.45;4.43;;;;;;;0.42;100.00;102924.28;7399940;19;20160;-46
2022/02/27 02:17:18;;;;;;;9.60;3.60;;;;;;;0.37;100.00;102929.72;7393835;19;20190;-47
2022/02/27 02:20:16;;;;;;;7.15;3.80;;;;;;;0.33;100.00;102930.13;7401081;19;20488;-49
2022/02/27 02:22:46;;;;;;;6.30;3.35;;;;;;;0.45;100.00;102934.84;7393783;19;20197;-47
2022/02/27 02:25:15;;;;;;;5.95;3.45;;;;;;;0.70;100.00;102922.44;7398743;19;20173;-46
2022/02/27 02:27:45;;;;;;;5.22;3.17;;;;;;;0.56;100.00;102936.09;7398006;19;20186;-49
2022/02/27 02:30:14;;;;;;;10.02;3.80;;;;;;;0.50;100.00;102938.78;7400564;19;20149;-46
2022/02/27 02:32:49;;;;;;;6.53;3.75;;;;;;;0.43;100.00;102931.19;7397694;19;20192;-48
2022/02/27 02:35:21;;;;;;;7.63;3.72;;;;;;;0.40;100.00;102935.19;7398009;19;20158;-46
2022/02/27 02:37:50;;;;;;;16.83;3.33;;;;;;;0.39;100.00;102933.38;7397154;19;20193;-47
2022/02/27 02:40:20;;;;;;;11.60;3.58;;;;;;;0.25;100.00;102930.81;7398434;19;20202;-48
2022/02/27 02:42:49;;;;;;;8.18;3.67;;;;;;;0.40;100.00;102917.41;7394354;19;20201;-47
2022/02/27 02:45:19;;;;;;;8.32;3.63;;;;;;;0.38;100.00;102928.09;7394700;19;20162;-49
2022/02/27 02:47:51;;;;;;;8.35;4.07;;;;;;;0.29;100.00;102933.00;7393465;19;20194;-46
2022/02/27 02:50:23;;;;;;;11.40;4.18;;;;;;;0.33;100.00;102930.13;7397102;19;20700;-48
2022/02/27 02:52:52;;;;;;;5.55;3.13;;;;;;;0.28;100.00;102918.50;7394370;19;20190;-46
2022/02/27 02:55:22;;;;;;;10.07;4.82;;;;;;;0.16;100.00;102927.22;7394820;19;20162;-46
2022/02/27 02:57:51;;;;;;;6.50;3.83;;;;;;;0.15;100.00;102918.66;7393841;19;20194;-47
2022/02/27 03:00:21;;;;;;;6.47;3.85;;;;;;;0.15;100.00;102923.75;7396306;19;20127;-47
2022/02/27 03:02:51;;;;;;;8.25;3.72;;;;;;;0.09;100.00;102923.00;7392297;19;20548;-46
2022/02/27 03:05:23;;;;;;;8.15;3.55;;;;;;;0.06;100.00;102918.47;7394705;19;20158;-49
2022/02/27 03:07:53;;;;;;;4.72;3.10;;;;;;;-0.04;100.00;102920.66;7392693;19;20197;-51
2022/02/27 03:10:22;;;;;;;10.32;5.03;;;;;;;0.22;100.00;102915.25;7396544;19;20127;-46
2022/02/27 03:12:51;;;;;;;6.32;3.60;;;;;;;0.13;100.00;102910.91;7390084;19;20197;-46
2022/02/27 03:15:21;;;;;;;14.90;3.40;;;;;;;0.22;100.00;102905.06;7394877;19;20173;-47
2022/02/27 03:17:50;;;;;;;6.50;3.08;;;;;;;0.12;100.00;102903.97;7393295;19;20547;-46
2022/02/27 03:20:22;;;;;;;7.57;3.65;;;;;;;0.09;100.00;102903.63;7395302;19;20141;-48
2022/02/27 03:22:52;;;;;;;8.25;3.72;;;;;;;0.00;100.00;102905.09;7393241;19;20190;-48
2022/02/27 03:25:22;;;;;;;6.53;3.40;;;;;;;0.00;100.00;102902.56;7394303;19;20162;-48
2022/02/27 03:27:51;;;;;;;8.02;3.30;;;;;;;0.05;100.00;102898.91;7392937;19;20281;-46
2022/02/27 03:30:21;;;;;;;6.50;3.33;;;;;;;0.05;100.00;102892.94;7395686;19;20127;-45
2022/02/27 03:32:51;;;;;;;10.07;4.20;;;;;;;-0.07;100.00;102894.91;7390581;19;20581;-46
2022/02/27 03:35:23;;;;;;;8.68;4.15;;;;;;;-0.16;100.00;102897.25;7392356;19;20155;-48
2022/02/27 03:37:52;;;;;;;6.40;3.47;;;;;;;-0.07;100.00;102897.44;7392020;19;20191;-51
2022/02/27 03:40:22;;;;;;;7.53;3.13;;;;;;;-0.32;100.00;102897.03;7395761;19;20127;-45
2022/02/27 03:42:52;;;;;;;6.28;3.20;;;;;;;-0.33;100.00;102902.84;7387263;19;20194;-46
2022/02/27 03:45:22;;;;;;;8.82;3.72;;;;;;;-0.20;100.00;102895.97;7398140;19;20628;-46
2022/02/27 03:47:51;;;;;;;8.40;3.70;;;;;;;-0.26;100.00;102897.78;7391416;19;20190;-47
2022/02/27 03:50:24;;;;;;;7.68;3.50;;;;;;;-0.34;100.00;102890.88;7395132;19;20130;-46
2022/02/27 03:52:53;;;;;;;7.55;3.63;;;;;;;-0.38;100.00;102886.16;7391977;19;20529;-49
2022/02/27 03:55:23;;;;;;;7.60;3.83;;;;;;;-0.35;100.00;102881.47;7391646;19;20158;-46
2022/02/27 03:57:52;;;;;;;9.80;3.83;;;;;;;-0.30;100.00;102877.84;7389525;19;20196;-47
2022/02/27 04:00:22;;;;;;;9.05;3.40;;;;;;;-0.04;100.00;102867.34;7394703;19;20131;-48
2022/02/27 04:02:51;;;;;;;7.82;3.97;;;;;;;-0.21;100.00;102875.50;7391179;19;20262;-48
2022/02/27 04:05:24;;;;;;;11.98;3.60;;;;;;;-0.52;100.00;102880.31;7396134;19;20170;-50
2022/02/27 04:07:54;;;;;;;8.55;3.70;;;;;;;-0.45;100.00;102875.25;7391357;19;20196;-46
2022/02/27 04:10:24;;;;;;;8.82;4.20;;;;;;;-0.52;100.00;102872.72;7394499;19;20621;-46
2022/02/27 04:12:53;;;;;;;8.80;3.80;;;;;;;-0.62;100.00;102880.84;7389019;19;20276;-48
2022/02/27 04:15:24;;;;;;;10.63;3.65;;;;;;;-0.75;100.00;102872.47;7392966;19;20162;-47
2022/02/27 04:17:53;;;;;;;10.45;3.72;;;;;;;-0.71;100.00;102857.81;7390388;19;20194;-47
2022/02/27 04:20:28;;;;;;;8.75;4.10;;;;;;;-0.77;100.00;102859.59;7393940;19;20155;-51
2022/02/27 04:22:57;;;;;;;9.65;3.85;;;;;;;-0.75;100.00;102862.34;7390879;19;20685;-47
2022/02/27 04:25:27;;;;;;;5.95;3.67;;;;;;;-0.73;100.00;102854.19;7392429;19;20512;-49
2022/02/27 04:27:56;;;;;;;13.13;4.20;;;;;;;-0.73;100.00;102851.66;7387624;19;20567;-47
2022/02/27 04:30:28;;;;;;;8.70;4.25;;;;;;;-0.60;100.00;102849.00;7393064;19;20130;-47
2022/02/27 04:32:57;;;;;;;6.10;3.00;;;;;;;-0.60;100.00;102848.06;7388434;19;20196;-46
2022/02/27 04:35:32;;;;;;;11.18;3.72;;;;;;;-0.71;100.00;102842.59;7392268;19;20163;-47
2022/02/27 04:38:02;;;;;;;7.05;3.65;;;;;;;-0.60;100.00;102845.53;7388963;19;20186;-48
2022/02/27 04:40:33;;;;;;;4.78;3.15;;;;;;;-0.59;100.00;102834.66;7393470;19;20602;-48
2022/02/27 04:43:03;;;;;;;11.70;3.78;;;;;;;-0.76;100.00;102832.63;7390498;19;20190;-48
2022/02/27 04:45:33;;;;;;;6.65;3.35;;;;;;;-0.92;100.00;102827.34;7392830;19;20157;-48
2022/02/27 04:48:03;;;;;;;8.23;4.15;;;;;;;-0.86;100.00;102825.56;7385538;19;20194;-47
2022/02/27 04:50:36;;;;;;;7.70;3.65;;;;;;;-0.85;100.00;102817.22;7393048;19;20135;-49
2022/02/27 04:53:06;;;;;;;7.22;3.58;;;;;;;-1.02;100.00;102826.22;7387781;19;20194;-50
2022/02/27 04:55:35;;;;;;;6.88;3.42;;;;;;;-1.00;100.00;102819.72;7393338;19;20123;-46
2022/02/27 04:58:05;;;;;;;9.75;4.25;;;;;;;-0.87;100.00;102818.66;7388932;19;20197;-45
2022/02/27 05:00:37;;;;;;;7.97;3.42;;;;;;;-0.85;100.00;102815.59;7393201;19;20131;-46
2022/02/27 05:03:07;;;;;;;7.20;3.70;;;;;;;-0.98;100.00;102813.19;7389326;19;20190;-47
2022/02/27 05:05:42;;;;;;;7.15;3.50;;;;;;;-0.85;100.00;102814.69;7390992;19;20605;-47
2022/02/27 05:08:11;;;;;;;11.43;3.83;;;;;;;-0.75;100.00;102807.47;7388895;19;20208;-48
2022/02/27 05:10:41;;;;;;;8.20;3.60;;;;;;;-0.70;100.00;102811.47;7392675;19;20141;-49
2022/02/27 05:13:10;;;;;;;9.18;3.65;;;;;;;-0.59;100.00;102819.44;7389626;19;20541;-51
2022/02/27 05:15:41;;;;;;;7.53;3.63;;;;;;;-0.76;100.00;102828.50;7392766;19;20133;-48
2022/02/27 05:18:11;;;;;;;9.05;3.88;;;;;;;-0.77;100.00;102825.75;7386073;19;20194;-48
2022/02/27 05:20:45;;;;;;;8.88;3.50;;;;;;;-0.83;100.00;102828.44;7394063;19;20598;-49
2022/02/27 05:23:19;;;;;;;9.90;3.65;;;;;;;-1.00;100.00;102844.16;7388526;19;20186;-48
2022/02/27 05:25:49;;;;;;;6.60;3.58;;;;;;;-0.94;100.00;102827.16;7391409;19;20127;-49
2022/02/27 05:28:18;;;;;;;6.80;3.78;;;;;;;-1.02;100.00;102836.34;7385787;19;20673;-49
2022/02/27 05:30:48;;;;;;;7.20;3.40;;;;;;;-1.18;100.00;102835.22;7392654;19;20119;-49
2022/02/27 05:33:17;;;;;;;6.25;2.80;;;;;;;-1.24;100.00;102826.13;7384712;19;20191;-47
2022/02/27 05:35:50;;;;;;;7.10;3.40;;;;;;;-1.19;100.00;102826.69;7392159;19;20470;-46
2022/02/27 05:38:20;;;;;;;10.75;4.15;;;;;;;-1.08;100.00;102830.53;7386236;19;20186;-46
2022/02/27 05:40:49;;;;;;;178.25;91.65;;;;;;;0.25;100.00;102806.38;7391829;19;20465;-47
2022/02/27 05:43:18;;;;;;;16.10;6.80;;;;;;;0.79;100.00;102824.41;7387448;19;20230;-46
2022/02/27 05:45:50;;;;;;;21.00;11.80;;;;;;;1.01;100.00;102839.53;7391601;19;20504;-50
2022/02/27 05:48:20;;;;;;;23.90;9.73;;;;;;;0.88;100.00;102867.75;7384167;19;20194;-46
2022/02/27 05:50:55;;;;;;;14.45;6.32;;;;;;;0.44;100.00;102884.72;7391684;19;20470;-46
2022/02/27 05:53:24;;;;;;;11.50;4.88;;;;;;;0.79;100.00;102899.03;7388527;19;20182;-47
2022/02/27 05:55:56;;;;;;;9.48;3.78;;;;;;;1.09;100.00;102910.00;7391111;19;20135;-46
2022/02/27 05:58:26;;;;;;;8.95;4.07;;;;;;;1.07;100.00;102940.34;7392635;19;20254;-48
2022/02/27 06:00:56;;;;;;;7.45;3.45;;;;;;;0.69;100.00;102953.66;7399174;19;20601;-46
2022/02/27 06:03:26;;;;;;;8.30;3.70;;;;;;;0.91;100.00;102954.53;7392660;19;20240;-45
2022/02/27 06:06:00;;;;;;;7.67;3.60;;;;;;;0.72;100.00;102970.16;7398847;19;20133;-47
2022/02/27 06:08:30;;;;;;;6.78;3.40;;;;;;;0.69;100.00;102974.91;7394129;19;20430;-46
2022/02/27 06:10:59;;;;;;;7.05;3.05;;;;;;;0.47;100.00;102974.00;7402500;19;20143;-46
2022/02/27 06:13:29;;;;;;;10.35;3.05;;;;;;;0.47;100.00;102984.19;7391216;19;20214;-46
2022/02/27 06:15:59;;;;;;;5.45;2.60;;;;;;;1.07;100.00;102982.63;7397617;19;20127;-49
2022/02/27 06:18:29;;;;;;;6.13;3.10;;;;;;;1.10;100.00;102990.63;7391959;19;20563;-47
2022/02/27 06:21:04;;;;;;;8.63;3.20;;;;;;;1.28;100.00;102994.38;7398078;19;21035;-48
2022/02/27 06:23:34;;;;;;;4.90;2.65;;;;;;;1.00;100.00;103011.56;7396111;19;20489;-47
2022/02/27 06:26:03;;;;;;;11.48;3.00;;;;;;;0.80;100.00;103019.38;7398219;19;20135;-48
2022/02/27 06:28:33;;;;;;;7.05;2.78;;;;;;;0.98;100.00;103020.66;7393884;19;20232;-49
2022/02/27 06:31:03;;;;;;;9.93;3.93;;;;;;;0.62;100.00;103021.53;7398117;19;20135;-48
2022/02/27 06:33:33;;;;;;;8.67;3.53;;;;;;;1.04;100.00;103022.97;7390517;19;20800;-47
2022/02/27 06:36:08;;;;;;;10.93;4.20;;;;;;;1.22;100.00;103024.19;7397043;19;20392;-47
2022/02/27 06:38:37;;;;;;;9.33;4.10;;;;;;;1.05;100.00;103040.03;7394499;19;20183;-47
2022/02/27 06:41:07;;;;;;;10.52;4.50;;;;;;;1.20;100.00;103039.31;7397227;19;20406;-46
2022/02/27 06:43:37;;;;;;;9.10;4.65;;;;;;;1.15;100.00;103053.13;7396003;19;20187;-47
2022/02/27 06:46:08;;;;;;;11.45;4.00;;;;;;;1.40;100.00;103043.25;7397513;19;20139;-48
2022/02/27 06:48:38;;;;;;;13.77;5.20;;;;;;;1.36;100.00;103046.16;7395523;19;20184;-46
2022/02/27 06:51:12;;;;;;;9.10;3.73;;;;;;;1.37;100.00;103049.63;7392334;19;20385;-55
2022/02/27 06:53:42;;;;;;;10.73;4.90;;;;;;;1.41;100.00;103059.41;7395151;19;20442;-48
2022/02/27 06:56:11;;;;;;;13.37;4.90;;;;;;;1.70;100.00;103064.41;7394123;19;20379;-46
2022/02/27 06:58:41;;;;;;;7.50;3.97;;;;;;;1.13;100.00;103082.53;7393961;19;20478;-47
2022/02/27 07:01:13;;;;;;;5.10;3.20;;;;;;;0.24;100.00;103078.84;7392647;19;20730;-49
2022/02/27 07:03:42;;;;;;;10.07;5.10;;;;;;;-0.11;100.00;103066.22;7394928;19;20413;-48
2022/02/27 07:06:17;;;;;;;6.57;3.60;;;;;;;-0.43;100.00;103060.66;7393678;19;20697;-46
2022/02/27 07:08:46;;;;;;;13.68;5.60;;;;;;;-0.49;100.00;103055.72;7395300;19;20400;-46
2022/02/27 07:11:16;;;;;;;11.40;4.10;;;;;;;-0.59;100.00;103052.78;7392102;19;20138;-46
2022/02/27 07:13:50;;;;;;;8.07;4.40;;;;;;;-0.63;100.00;103037.88;7394744;19;20515;-47
2022/02/27 07:16:22;;;;;;;10.90;3.55;;;;;;;-0.73;100.00;103031.69;7393190;19;20167;-50
2022/02/27 07:18:53;;;;;;;92.03;35.83;;;;;;;-0.59;100.00;103019.78;7392909;19;20143;-46
2022/02/27 07:21:25;;;;;;;103.15;35.05;;;;;;;-0.41;100.00;103013.56;7394483;19;20131;-46
2022/02/27 07:23:54;;;;;;;19.00;7.28;;;;;;;-0.48;100.00;102995.75;7395164;19;20515;-46
2022/02/27 07:26:24;;;;;;;19.95;7.28;;;;;;;-0.57;100.00;102990.44;7390029;19;20139;-48
2022/02/27 07:28:54;;;;;;;10.75;4.80;;;;;;;-0.50;100.00;102977.84;7395384;19;20135;-48
2022/02/27 07:31:24;;;;;;;11.40;3.88;;;;;;;-0.46;100.00;102976.56;7389480;19;20134;-48
2022/02/27 07:33:53;;;;;;;11.85;5.53;;;;;;;-0.48;100.00;102981.44;7394818;19;20173;-47
2022/02/27 07:36:25;;;;;;;14.98;4.60;;;;;;;-0.35;100.00;102972.81;7390966;19;20478;-47
2022/02/27 07:38:55;;;;;;;11.07;4.30;;;;;;;-0.40;100.00;102964.63;7393952;19;20145;-47
2022/02/27 07:41:24;;;;;;;9.52;4.63;;;;;;;-0.39;100.00;102965.53;7392032;19;20138;-47
2022/02/27 07:43:58;;;;;;;9.50;4.45;;;;;;;-0.28;100.00;102965.19;7395256;19;20171;-48
2022/02/27 07:46:27;;;;;;;11.65;4.20;;;;;;;-0.30;100.00;102964.13;7396961;19;20221;-48
2022/02/27 07:48:57;;;;;;;9.02;4.90;;;;;;;-0.25;100.00;102963.06;7394838;19;20484;-49
2022/02/27 07:51:32;;;;;;;10.65;5.03;;;;;;;-0.25;100.00;102964.66;7391009;19;20273;-51
2022/02/27 07:54:02;;;;;;;12.77;5.20;;;;;;;-0.17;100.00;102962.34;7394448;19;20163;-46
2022/02/27 07:56:32;;;;;;;11.75;4.88;;;;;;;-0.10;100.00;102960.53;7391537;19;20186;-47
2022/02/27 07:59:01;;;;;;;10.73;5.03;;;;;;;-0.08;100.00;102962.53;7396524;19;20127;-46
2022/02/27 08:01:34;;;;;;;10.48;4.88;;;;;;;-0.06;100.00;102958.53;7384484;19;20190;-49
2022/02/27 08:04:04;;;;;;;8.45;4.30;;;;;;;-0.02;100.00;102964.91;7396467;19;20162;-48
2022/02/27 08:06:37;;;;;;;9.88;5.00;;;;;;;0.02;100.00;102962.00;7392384;19;20540;-51
2022/02/27 08:09:08;;;;;;;11.38;5.30;;;;;;;0.08;100.00;102957.66;7393255;19;20644;-45
2022/02/27 08:11:37;;;;;;;14.30;5.40;;;;;;;0.18;100.00;102964.75;7387625;19;20536;-45
2022/02/27 08:14:11;;;;;;;13.82;5.72;;;;;;;0.25;100.00;102958.75;7393630;19;20642;-45
2022/02/27 08:16:43;;;;;;;10.65;5.60;;;;;;;0.23;100.00;102960.22;7389815;19;20374;-46
2022/02/27 08:19:13;;;;;;;15.25;5.55;;;;;;;0.29;100.00;102963.47;7393036;19;20505;-49
2022/02/27 08:21:45;;;;;;;9.88;4.60;;;;;;;0.42;100.00;102965.88;7390589;19;20257;-46
2022/02/27 08:24:15;;;;;;;13.50;5.07;;;;;;;0.51;100.00;102966.94;7393053;19;20165;-48
2022/02/27 08:26:44;;;;;;;10.65;6.20;;;;;;;0.69;100.00;102968.91;7387266;19;20265;-50
2022/02/27 08:29:14;;;;;;;13.32;5.95;;;;;;;0.79;100.00;102970.19;7392343;19;20144;-45
2022/02/27 08:31:45;;;;;;;12.07;5.20;;;;;;;0.85;100.00;102985.25;7389527;19;20951;-48
2022/02/27 08:34:15;;;;;;;9.63;4.80;;;;;;;0.97;100.00;102984.88;7393085;19;20245;-47
2022/02/27 08:36:48;;;;;;;10.40;5.15;;;;;;;1.10;100.00;102983.00;7392185;19;20548;-48
2022/02/27 08:39:17;;;;;;;18.27;6.65;;;;;;;1.09;100.00;102986.28;7391038;19;20134;-46
2022/02/27 08:41:47;;;;;;;12.32;5.00;;;;;;;1.09;100.00;102993.91;7390173;19;20270;-46
2022/02/27 08:44:16;;;;;;;10.98;5.40;;;;;;;1.18;100.00;102986.44;7391664;19;20163;-49
2022/02/27 08:46:46;;;;;;;8.73;4.72;;;;;;;1.30;100.00;103002.22;7387624;19;20341;-46
2022/02/27 08:49:16;;;;;;;12.40;4.97;;;;;;;1.35;100.00;103007.09;7392163;19;20127;-45
2022/02/27 08:51:49;;;;;;;13.77;5.43;;;;;;;1.33;100.00;103018.72;7389674;19;20194;-50
2022/02/27 08:54:18;;;;;;;11.93;5.40;;;;;;;1.47;100.00;103027.97;7391668;19;20154;-46
2022/02/27 08:56:48;;;;;;;14.05;5.20;;;;;;;1.58;100.00;103030.81;7389212;19;20198;-45
2022/02/27 08:59:18;;;;;;;11.95;4.63;;;;;;;2.20;100.00;103029.25;7390590;19;20583;-48
2022/02/27 09:01:47;;;;;;;25.43;10.90;;;;;;;3.22;100.00;103031.81;7387683;19;20600;-47
2022/02/27 09:04:17;;;;;;;84.20;35.53;;;;;;;3.78;100.00;103046.31;7391023;19;20772;-46
2022/02/27 09:06:50;;;;;;;49.83;22.70;;;;;;;4.15;100.00;103054.41;7389831;19;20426;-46
2022/02/27 09:09:21;;;;;;;44.70;21.20;;;;;;;4.22;100.00;103075.47;7392569;19;20467;-49
2022/02/27 09:11:52;;;;;;;57.17;26.57;;;;;;;4.53;100.00;103091.47;7388783;19;20427;-46
2022/02/27 09:14:21;;;;;;;39.63;15.53;;;;;;;3.98;100.00;103108.84;7391263;19;21105;-50
2022/02/27 09:16:51;;;;;;;14.03;6.67;;;;;;;3.49;100.00;103117.25;7386507;19;20448;-46
2022/02/27 09:19:20;;;;;;;16.20;6.33;;;;;;;3.15;100.00;103105.91;7389654;19;20380;-46
2022/02/27 09:21:53;;;;;;;15.80;4.90;;;;;;;3.23;100.00;103110.22;7386815;19;20494;-48
2022/02/27 09:24:23;;;;;;;12.50;5.20;;;;;;;3.31;100.00;103099.19;7394210;19;20442;-45
2022/02/27 09:26:53;;;;;;;13.90;5.67;;;;;;;3.33;100.00;103107.03;7384498;19;20482;-46
2022/02/27 09:29:22;;;;;;;14.07;5.40;;;;;;;3.35;100.00;103114.06;7392563;19;20402;-48
2022/02/27 09:31:54;;;;;;;13.30;5.60;;;;;;;3.41;100.00;103112.94;7389807;19;20434;-46
2022/02/27 09:34:25;;;;;;;13.77;4.67;;;;;;;3.25;100.00;103111.28;7397513;19;20502;-49
2022/02/27 09:36:57;;;;;;;11.00;4.93;;;;;;;3.31;100.00;103117.06;7394580;19;20407;-47
2022/02/27 09:39:28;;;;;;;9.60;4.87;;;;;;;3.21;100.00;103116.78;7398480;19;20467;-47
2022/02/27 09:41:57;;;;;;;16.67;4.07;;;;;;;3.26;100.00;103120.75;7396643;19;20410;-47
2022/02/27 09:44:27;;;;;;;9.13;4.30;;;;;;;3.40;100.00;103124.81;7397508;19;20422;-47
2022/02/27 09:47:03;;;;;;;9.63;4.30;;;;;;;3.49;100.00;103119.81;7395668;19;20415;-46
2022/02/27 09:49:33;;;;;;;11.73;4.33;;;;;;;3.50;100.00;103121.59;7400467;19;20392;-47
2022/02/27 09:52:05;;;;;;;11.77;3.83;;;;;;;3.48;100.00;103128.16;7395551;19;20410;-47
2022/02/27 09:54:36;;;;;;;7.77;4.83;;;;;;;3.60;100.00;103126.06;7396620;19;20403;-47
2022/02/27 09:57:06;;;;;;;13.40;5.23;;;;;;;3.75;100.00;103124.25;7395356;19;20414;-46
2022/02/27 09:59:35;;;;;;;12.37;4.47;;;;;;;3.73;100.00;103123.16;7396695;19;20379;-46
2022/02/27 10:02:06;;;;;;;10.80;4.90;;;;;;;3.69;100.00;103121.94;7394787;19;20401;-45
2022/02/27 10:04:37;;;;;;;14.10;4.53;;;;;;;3.79;100.00;103131.47;7396428;19;20423;-48
2022/02/27 10:07:15;;;;;;;12.13;4.57;;;;;;;3.89;100.00;103131.75;7394694;19;20506;-48
2022/02/27 10:09:46;;;;;;;12.33;4.70;;;;;;;3.99;100.00;103135.31;7399584;19;20367;-47
2022/02/27 10:12:19;;;;;;;11.70;4.97;;;;;;;4.00;100.00;103132.00;7392885;19;20432;-46
2022/02/27 10:15:02;;;;;;;13.40;4.67;;;;;;;4.12;100.00;103138.41;7395837;19;20413;-47
2022/02/27 10:17:36;;;;;;;10.80;4.13;;;;;;;4.25;100.00;103139.72;7392831;19;20494;-47
2022/02/27 10:20:07;;;;;;;11.73;5.43;;;;;;;4.21;100.00;103150.34;7396197;19;20914;-47
2022/02/27 10:22:41;;;;;;;13.80;4.73;;;;;;;4.17;100.00;103152.56;7393729;19;20962;-47
2022/02/27 10:25:13;;;;;;;15.30;4.70;;;;;;;4.15;100.00;103156.59;7395719;19;20415;-46
2022/02/27 10:27:47;;;;;;;8.83;4.03;;;;;;;4.27;100.00;103153.56;7390997;19;20761;-49
2022/02/27 10:30:22;;;;;;;11.13;4.43;;;;;;;4.27;100.00;103158.66;7395442;19;20390;-48
2022/02/27 10:32:54;;;;;;;12.17;4.13;;;;;;;4.29;100.00;103162.28;7392026;19;20433;-47
2022/02/27 10:35:40;;;;;;;11.90;4.60;;;;;;;4.40;100.00;103155.72;7394926;19;20410;-48
2022/02/27 10:38:14;;;;;;;9.90;4.20;;;;;;;4.37;100.00;103153.78;7393733;19;20415;-46
2022/02/27 10:40:48;;;;;;;8.43;3.77;;;;;;;4.47;100.00;103153.09;7394806;19;20371;-46
2022/02/27 10:43:20;;;;;;;11.47;5.60;;;;;;;4.73;100.00;103150.69;7390516;19;20433;-49
2022/02/27 10:46:06;;;;;;;13.60;4.57;;;;;;;4.89;100.00;103154.84;7397107;19;20462;-46
2022/02/27 10:48:35;;;;;;;14.43;3.90;;;;;;;5.00;100.00;103151.75;7394263;19;20403;-50
2022/02/27 10:51:06;;;;;;;8.40;3.60;;;;;;;5.09;100.00;103153.44;7396321;19;20390;-46
2022/02/27 10:53:39;;;;;;;8.33;3.87;;;;;;;4.88;100.00;103159.81;7397956;19;20447;-46
2022/02/27 10:56:13;;;;;;;9.90;4.60;;;;;;;5.09;100.00;103158.56;7394280;19;20390;-47
2022/02/27 10:58:44;;;;;;;11.80;4.37;;;;;;;5.33;100.00;103160.16;7395286;19;20398;-47
2022/02/27 11:01:19;;;;;;;8.03;3.60;;;;;;;5.42;100.00;103160.19;7387877;19;20396;-50
2022/02/27 11:03:50;;;;;;;10.20;4.63;;;;;;;5.59;100.00;103154.19;7394600;19;20441;-46
2022/02/27 11:06:20;;;;;;;8.47;4.03;;;;;;;5.66;100.00;103155.72;7392983;19;20396;-49
2022/02/27 11:08:53;;;;;;;18.47;7.67;;;;;;;5.70;100.00;103157.84;7395028;19;20403;-48
2022/02/27 11:11:22;;;;;;;9.63;5.03;;;;;;;5.63;100.00;103156.31;7393283;19;20840;-47
2022/02/27 11:13:52;;;;;;;15.10;6.50;;;;;;;5.62;100.00;103154.50;7395434;19;20424;-48
2022/02/27 11:16:23;;;;;;;12.20;4.70;;;;;;;5.72;100.00;103151.22;7393140;19;20804;-46
2022/02/27 11:18:53;;;;;;;11.23;3.87;;;;;;;5.53;100.00;103161.25;7395003;19;20396;-46
2022/02/27 11:21:24;;;;;;;13.57;3.90;;;;;;;5.57;100.00;103165.03;7393938;19;20403;-51
2022/02/27 11:23:56;;;;;;;8.00;2.57;;;;;;;5.18;100.00;103159.50;7397594;19;20758;-49
2022/02/27 11:26:26;;;;;;;13.60;2.80;;;;;;;5.03;100.00;103152.81;7394299;19;20392;-50
2022/02/27 11:28:56;;;;;;;6.13;2.53;;;;;;;4.90;100.00;103156.66;7395083;19;20394;-46
2022/02/27 11:31:25;;;;;;;4.97;2.53;;;;;;;5.10;100.00;103152.69;7391451;19;20917;-46
2022/02/27 11:34:14;;;;;;;7.77;3.17;;;;;;;5.35;100.00;103151.00;7395148;19;20411;-49
2022/02/27 11:36:45;;;;;;;8.30;2.77;;;;;;;5.56;100.00;103153.91;7391547;19;20419;-52